Strona główna
METAR-TAF:

METAR-TAF

Lotnisko :

Lotnisko Chopina w Warszawie

Warszawa, Polska

Szerokość geograficzna: 52-10N, Długość geograficzna: 020-58E, wysokość: 106 m

Aktualna obserwacja pogody

Raport powstał 20 minut temu, godzina 15:30 UTC
Wiatr 4 kt z kierunków zmiennych
Temperatura 26°C
Wilgotność 45%
Ciśnienie 1019 hPa
Widzialność 10 km lub więcej
Brak chmur poniżej 1500 m i brak chmur cumulonimbus

METAR: EPWA 161530Z VRB04KT CAVOK 26/13 Q1019 NOSIG

czas: 17:50 (15:50 UTC)

Prognoza

Raport powstał 1 godzina i 20 minut temu, godzina 14:30 UTC
Prognoza ważna od 16 godzina 15 UTC do 17 godzina 15 UTC
Wiatr 4 kt z kierunków zmiennych
Widzialność 10 km lub więcej
Rozproszone chmury na wysokości 4000 ft

TAF: EPWA 161430Z 1615/1715 VRB04KT 9999 SCT040

Obserwacja i prognoza pogody dla ponad 4000 lotnisk (raport METAR i TAF).

Dostępne stacje oznaczono żółtymi i czerwonymi punktami na mapie.

Najedź kursorem aby zobaczyć nazwę stacji.

Kliknij aby zobaczyć obserwacje i prognozy pogody.

Aby zmienić mapę: kliknij na zielony przycisk z czarnym krzyżykiem, aby powiększyć; na zielony przycisk z myślnikiem, aby pomniejszyć; na zielone strzałki, aby przejść do map sąsiednich.


METAR-TAF: